Terminal Aerodrome Forecast
Issued by NWS

Home | Current Version | Previous Version | Text Only | Print | Product List | Glossary On
Versions: 1 2 3 4 5 6 7 8 9 10 11 12
759
FTUS46 KHNX 241725
TAFVIS
TAF
KVIS 241725Z 2418/2518 14005KT P6SM FEW250
     FM242100 31006KT P6SM SCT250
     FM251200 VRB03KT P6SM SCT250=

USA.gov is the U.S. government's official web portal to all federal, state and local government web resources and services.